松山空港の過去48時間の天気

松山空港 (Matsuyama)

現在時刻: 1/23 14:59 JST (1/23 05:59 UTC) 以下の時間は現地時間です。

過去48時間のMETAR気象情報
時間 風向 風速(m/s) 視程 気温(℃) 湿度(%) 気圧(hPa) 天気現象
23 14:11 西 11 9,000m 5 65 1016 弱いしゅう雨
23 14:00 西北西 12 10km以上 5 75 1016 弱いしゅう雨
23 13:00 西北西 10 10km以上 7 66 1015
23 12:08 西 11 10km以上 6 70 1015 弱いしゅう雨
23 11:00 西南西 12 10km以上 8 66 1015
23 10:37 西 11 10km以上 9 57 1015 周辺でしゅう雨
23 10:00 西 10 10km以上 10 50 1015
23 09:00 西 12 10km以上 9 53 1014
23 08:00 西 10 9,000m 9 66 1014
23 07:00 西 13 8,000m 9 66 1013
23 06:16 西 12 10km以上 10 62 1013
23 06:10 西 12 10km以上 10 66 1013
22 21:00 東南東 4 10km以上 3 87 1014
22 20:00 東南東 5 10km以上 4 81 1014
22 19:00 不定 1 10km以上 4 81 1014
22 18:00 3 10km以上 4 87 1013
22 17:00 北北東 3 10km以上 4 87 1012
22 16:00 北東 5 10km以上 4 87 1012
22 15:00 8 9,000m 4 93 1011 弱いしゅう雨
22 14:19 6 8,000m 5 87 1011 弱いしゅう雨
22 14:00 不定 1 10km以上 5 87 1011 弱いしゅう雨
22 13:00 2 10km以上 5 87 1011 弱いしゅう雨
22 12:00 2 10km以上 4 87 1012 弱いしゅう雨
22 11:12 北東 2 7,000m 5 81 1014 弱いしゅう雨
22 11:00 北東 2 6,000m 5 87 1014 しゅう雨
22 10:00 不定 1 6,000m 5 87 1015 弱い雨
22 09:00 東北東 4 6,000m 5 81 1015 弱い雨
22 08:00 東南東 4 6,000m 6 76 1015 弱い雨
22 07:00 南南東 3 10km以上 7 57 1015 弱い雨
22 06:10 東南東 2 10km以上 7 53 1014
RJOM 230511Z 28021G31KT 9000 -SHRA FEW015 SCT025 BKN035 05/M01 Q1016 RMK 1CU015 3CU025 6CU035 A3001
RJOM 230500Z 29023KT 9999 -SHRA FEW015 SCT035 BKN050 05/01 Q1016
RJOM 230400Z 29019KT 9999 FEW015 SCT025 BKN035 07/01 Q1015
RJOM 230308Z 28022G32KT 9999 -SHRA FEW015 SCT025 BKN035 06/01 Q1015 RMK 2CU015 4CU025 6CU035 A3000
RJOM 230200Z 25023KT 9999 FEW020 BKN030 08/02 Q1015
RJOM 230137Z 26021G31KT 9999 VCSH FEW025 BKN035 09/01 Q1015 RMK 1CU025 6CU035 A2999
RJOM 230100Z 28020KT 9999 FEW025 SCT035 10/00 Q1015
RJOM 230000Z 27023KT 9999 FEW025 SCT035 09/00 Q1014
RJOM 222300Z 27020KT 9000 FEW025 SCT035 09/03 Q1014
RJOM 222200Z 26026KT 8000 FEW020 BKN035 09/03 Q1013
RJOM 222116Z 26023G33KT 9999 FEW020 BKN035 10/03 Q1013 RMK 2CU020 6CU035 A2992
RJOM 222110Z 26023KT 9999 FEW020 BKN035 10/04 Q1013 RMK 2CU020 6CU035 A2992
RJOM 221200Z 11008KT 9999 FEW008 03/01 Q1014
RJOM 221100Z 11009KT 9999 FEW008 SCT020 04/01 Q1014
RJOM 221000Z VRB02KT 9999 FEW008 04/01 Q1014
RJOM 220900Z 01006KT 340V040 9999 FEW006 SCT010 04/02 Q1013
RJOM 220800Z 03005KT 9999 FEW008 SCT020 04/02 Q1012
RJOM 220700Z 04009KT 9999 FEW008 SCT020 BKN050 04/02 Q1012
RJOM 220600Z 01016KT 9000 -SHRA FEW005 SCT010 BKN020 04/03 Q1011
RJOM 220519Z 01012G22KT 320V050 8000 -SHRA FEW005 SCT010 BKN020 05/03 Q1011 RMK 1ST005 4ST010 7CU020 A2987
RJOM 220500Z VRB01KT 9999 -SHRA FEW003 SCT010 BKN020 05/03 Q1011
RJOM 220400Z 19003KT 140V250 9999 -SHRA FEW003 SCT010 BKN025 05/03 Q1011
RJOM 220300Z 18003KT 140V210 9999 -SHRA FEW003 SCT010 BKN025 04/02 Q1012
RJOM 220212Z 05003KT 020V080 7000 -SHRA FEW010 SCT015 BKN030 05/02 Q1014 RMK 1ST010 3CU015 6CU030 A2995
RJOM 220200Z 05004KT 6000 SHRA FEW010 SCT015 BKN030 05/03 Q1014
RJOM 220100Z VRB02KT 6000 -RA FEW008 SCT020 BKN040 05/03 Q1015
RJOM 220000Z 06007KT 030V100 6000 -RA FEW020 SCT030 BKN045 05/02 Q1015
RJOM 212300Z 12008KT 6000 -RA FEW020 SCT030 BKN045 06/02 Q1015
RJOM 212200Z 16005KT 9999 -RA FEW025 SCT045 BKN060 07/M01 Q1015
RJOM 212110Z 11004KT 070V130 9999 FEW020 SCT060 BKN080 07/M02 Q1014 RMK 1CU020 4SC060 6AC080 A2996